createdAt,value
2018-04-30T00:00:13.917Z,58.75
2018-04-30T00:02:42.724Z,58.99
2018-04-30T00:05:11.424Z,59.52
2018-04-30T00:07:40.112Z,58.77
2018-04-30T00:10:08.989Z,58.72
2018-04-30T00:12:37.766Z,59.15
2018-04-30T00:15:06.802Z,59.67
2018-04-30T00:17:35.589Z,60.33
2018-04-30T00:20:04.980Z,60.46
2018-04-30T00:22:35.000Z,60.48
2018-04-30T00:25:03.972Z,60.76
2018-04-30T00:27:32.792Z,61.80
2018-04-30T00:30:01.598Z,62.97
2018-04-30T00:32:30.394Z,63.86
2018-04-30T00:34:59.162Z,64.23
2018-04-30T00:37:28.641Z,64.00
2018-04-30T00:39:57.489Z,63.83
2018-04-30T00:42:26.281Z,64.10
2018-04-30T00:44:55.125Z,64.27
2018-04-30T00:47:24.689Z,64.42
2018-04-30T00:49:53.929Z,64.85
2018-04-30T00:52:24.628Z,65.05
2018-04-30T00:55:01.560Z,65.06
2018-04-30T00:57:30.232Z,64.17
2018-04-30T00:59:58.962Z,65.46
2018-04-30T01:02:27.660Z,66.25
2018-04-30T01:04:56.447Z,65.35
2018-04-30T01:07:26.511Z,65.00
2018-04-30T01:09:55.132Z,64.39
2018-04-30T01:12:24.113Z,64.33
2018-04-30T01:14:54.161Z,64.79
2018-04-30T01:17:23.223Z,64.83
2018-04-30T01:19:51.899Z,64.89
2018-04-30T01:22:20.640Z,64.98
2018-04-30T01:24:49.374Z,65.04
2018-04-30T01:27:18.072Z,65.67
2018-04-30T01:29:46.835Z,64.83
2018-04-30T01:32:15.590Z,65.77
2018-04-30T01:34:44.112Z,66.40
2018-04-30T01:37:13.745Z,66.37
2018-04-30T01:39:42.334Z,66.39
2018-04-30T01:42:11.086Z,66.61
2018-04-30T01:44:40.303Z,66.93
2018-04-30T01:47:10.144Z,66.79
2018-04-30T01:49:39.194Z,67.51
2018-04-30T01:52:08.060Z,67.49
2018-04-30T01:54:36.795Z,67.44
2018-04-30T01:57:05.707Z,67.49
2018-04-30T01:59:34.378Z,67.21
2018-04-30T02:02:03.000Z,67.95
2018-04-30T02:04:31.589Z,68.94
2018-04-30T02:07:00.429Z,69.39
2018-04-30T02:09:29.193Z,69.50
2018-04-30T02:11:58.764Z,68.65
2018-04-30T02:14:27.627Z,69.39
2018-04-30T02:16:57.173Z,69.74
2018-04-30T02:19:27.332Z,70.27
2018-04-30T02:21:56.197Z,70.73
2018-04-30T02:24:24.837Z,71.14
2018-04-30T02:26:53.439Z,71.20
2018-04-30T02:29:22.167Z,71.34
2018-04-30T02:31:50.842Z,71.31
2018-04-30T02:34:20.424Z,71.14
2018-04-30T02:36:49.107Z,70.90
2018-04-30T02:39:17.863Z,70.58
2018-04-30T02:41:46.612Z,70.15
2018-04-30T02:44:15.379Z,69.65
2018-04-30T02:46:45.630Z,69.30
2018-04-30T02:49:16.135Z,69.02
2018-04-30T02:51:44.714Z,68.62
2018-04-30T02:54:14.985Z,68.55
2018-04-30T02:56:43.870Z,68.47
2018-04-30T02:59:12.693Z,68.43
2018-04-30T03:01:41.483Z,68.81
2018-04-30T03:04:10.131Z,68.80
2018-04-30T03:06:38.929Z,68.85
2018-04-30T03:09:07.523Z,68.82
2018-04-30T03:11:36.286Z,68.59
2018-04-30T03:14:04.880Z,69.02
2018-04-30T03:16:33.627Z,69.72
2018-04-30T03:19:04.643Z,70.21
2018-04-30T03:21:33.526Z,70.66
2018-04-30T03:24:02.337Z,70.91
2018-04-30T03:26:31.018Z,71.15
2018-04-30T03:28:59.765Z,71.11
2018-04-30T03:31:28.565Z,70.99
2018-04-30T03:33:57.378Z,71.08
2018-04-30T03:36:26.138Z,71.31
2018-04-30T03:38:55.711Z,71.77
2018-04-30T03:41:24.400Z,71.87
2018-04-30T03:43:53.224Z,71.95
2018-04-30T03:46:21.884Z,72.05
2018-04-30T03:48:51.305Z,71.86
2018-04-30T03:51:21.616Z,71.70
2018-04-30T03:53:51.839Z,71.71
2018-04-30T03:56:21.153Z,71.62
2018-04-30T03:58:49.981Z,71.58
2018-04-30T04:01:37.297Z,71.05
2018-04-30T04:04:23.902Z,70.40
2018-04-30T04:06:53.509Z,70.33
2018-04-30T04:09:22.238Z,70.41
2018-04-30T04:11:50.875Z,70.43
2018-04-30T04:14:19.766Z,70.39
2018-04-30T04:16:48.553Z,70.28
2018-04-30T04:19:18.211Z,70.64
2018-04-30T04:21:47.623Z,71.83
2018-04-30T04:24:16.294Z,71.79
2018-04-30T04:26:45.883Z,71.17
2018-04-30T04:29:14.530Z,71.29
2018-04-30T04:31:44.212Z,70.80
2018-04-30T04:34:13.608Z,69.98
2018-04-30T04:36:42.426Z,69.72
2018-04-30T04:39:11.134Z,70.67
2018-04-30T04:41:39.976Z,70.49
2018-04-30T04:44:08.865Z,70.56
2018-04-30T04:46:37.725Z,70.62
2018-04-30T04:49:07.232Z,70.76
2018-04-30T04:51:36.869Z,71.02
2018-04-30T04:54:05.833Z,70.94
2018-04-30T04:56:34.539Z,69.78
2018-04-30T04:59:03.360Z,69.00
2018-04-30T05:01:31.872Z,68.37
2018-04-30T05:04:00.725Z,66.67
2018-04-30T05:06:29.742Z,66.07
2018-04-30T05:08:59.307Z,66.17
2018-04-30T05:11:28.024Z,65.77
2018-04-30T05:13:56.929Z,65.82
2018-04-30T05:16:26.159Z,61.96
2018-04-30T05:18:55.066Z,63.40
2018-04-30T05:21:24.383Z,64.72
2018-04-30T05:23:53.767Z,62.93
2018-04-30T05:26:23.358Z,61.37
2018-04-30T05:28:52.137Z,61.06
2018-04-30T05:31:20.889Z,60.70
2018-04-30T05:33:49.679Z,60.92
2018-04-30T05:36:18.793Z,59.61
2018-04-30T05:38:47.627Z,58.11
2018-04-30T05:41:16.514Z,57.60
2018-04-30T05:43:45.295Z,56.56
2018-04-30T05:46:14.136Z,55.78
2018-04-30T05:48:42.729Z,55.50
2018-04-30T05:51:12.185Z,55.55
2018-04-30T05:53:41.855Z,54.87
2018-04-30T05:56:11.613Z,54.95
2018-04-30T05:58:40.799Z,55.00
2018-04-30T06:01:10.356Z,54.43
2018-04-30T06:03:39.179Z,54.26
2018-04-30T06:06:08.594Z,54.64
2018-04-30T06:08:38.182Z,54.24
2018-04-30T06:11:08.185Z,54.95
2018-04-30T06:13:36.907Z,54.71
2018-04-30T06:16:05.578Z,55.13
2018-04-30T06:18:34.481Z,53.87
2018-04-30T06:21:04.545Z,51.68
2018-04-30T06:23:33.891Z,51.03
2018-04-30T06:26:02.747Z,51.17
2018-04-30T06:28:31.679Z,50.66
2018-04-30T06:31:00.477Z,50.52
2018-04-30T06:33:29.187Z,50.24
2018-04-30T06:35:58.125Z,50.67
2018-04-30T06:38:26.892Z,50.16
2018-04-30T06:40:56.032Z,49.89
2018-04-30T06:43:25.065Z,49.53
2018-04-30T06:45:53.849Z,47.99
2018-04-30T06:48:23.896Z,44.61
2018-04-30T06:50:55.019Z,41.19
2018-04-30T06:53:25.056Z,38.56
2018-04-30T06:55:54.024Z,35.92
2018-04-30T06:58:23.022Z,34.38
2018-04-30T07:00:51.953Z,34.69
2018-04-30T07:03:20.974Z,34.56
2018-04-30T07:05:50.622Z,33.82
2018-04-30T07:08:19.484Z,35.13
2018-04-30T07:10:48.310Z,37.20
2018-04-30T07:13:16.995Z,37.01
2018-04-30T07:15:46.606Z,37.11
2018-04-30T07:18:16.508Z,35.66
2018-04-30T07:20:45.738Z,34.68
2018-04-30T07:23:16.444Z,34.57
2018-04-30T07:25:45.452Z,36.53
2018-04-30T07:28:15.402Z,35.79
2018-04-30T07:30:44.140Z,36.04
2018-04-30T07:33:12.891Z,34.49
2018-04-30T07:35:41.846Z,35.43
2018-04-30T07:38:10.953Z,35.94
2018-04-30T07:40:39.634Z,33.84
2018-04-30T07:43:08.457Z,33.38
2018-04-30T07:45:37.833Z,34.01
2018-04-30T07:48:07.569Z,34.71
2018-04-30T07:50:38.016Z,36.63
2018-04-30T07:53:07.589Z,34.25
2018-04-30T07:55:36.514Z,31.56
2018-04-30T07:58:05.499Z,30.80
2018-04-30T08:00:34.806Z,30.20
2018-04-30T08:03:04.733Z,28.87
2018-04-30T08:05:34.787Z,29.54
2018-04-30T08:08:06.382Z,30.21
2018-04-30T08:10:35.590Z,29.11
2018-04-30T08:13:05.290Z,28.33
2018-04-30T08:15:35.713Z,27.60
2018-04-30T08:18:06.579Z,25.86
2018-04-30T08:20:36.134Z,24.44
2018-04-30T08:23:06.712Z,23.94
2018-04-30T08:25:35.561Z,23.33
2018-04-30T08:28:04.605Z,23.15
2018-04-30T08:30:34.571Z,23.91
2018-04-30T08:33:03.456Z,24.05
2018-04-30T08:35:33.802Z,23.12
2018-04-30T08:38:03.957Z,22.02
2018-04-30T08:40:33.675Z,23.44
2018-04-30T08:43:02.795Z,25.38
2018-04-30T08:45:31.631Z,26.76
2018-04-30T08:48:00.556Z,25.18
2018-04-30T08:50:29.453Z,24.36
2018-04-30T08:52:58.567Z,23.98
2018-04-30T08:55:27.614Z,24.95
2018-04-30T08:57:56.362Z,23.28
2018-04-30T09:00:26.231Z,23.32
2018-04-30T09:02:55.149Z,22.64
2018-04-30T09:05:26.469Z,22.49
2018-04-30T09:07:56.093Z,23.48
2018-04-30T09:10:25.881Z,25.63
2018-04-30T09:12:55.343Z,25.49
2018-04-30T09:15:24.204Z,24.50
2018-04-30T09:17:53.507Z,27.04
2018-04-30T09:20:22.853Z,24.76
2018-04-30T09:22:51.666Z,23.78
2018-04-30T09:25:20.961Z,22.24
2018-04-30T09:27:50.099Z,22.06
2018-04-30T09:30:19.065Z,22.69
2018-04-30T09:32:49.017Z,22.64
2018-04-30T09:35:18.832Z,22.71
2018-04-30T09:37:48.898Z,30.27
2018-04-30T09:40:17.670Z,33.54
2018-04-30T09:42:46.390Z,29.93
2018-04-30T09:45:17.111Z,26.61
2018-04-30T09:47:46.967Z,24.74
2018-04-30T09:50:15.607Z,23.72
2018-04-30T09:52:44.444Z,22.54
2018-04-30T09:55:13.438Z,21.83
2018-04-30T09:57:42.324Z,23.19
2018-04-30T10:00:11.933Z,21.16
2018-04-30T10:02:41.082Z,20.80
2018-04-30T10:05:10.727Z,20.83
2018-04-30T10:07:39.623Z,20.82
2018-04-30T10:10:09.218Z,20.76
2018-04-30T10:12:38.183Z,20.70
2018-04-30T10:15:09.220Z,22.35
2018-04-30T10:17:39.768Z,26.21
2018-04-30T10:20:08.729Z,34.11
2018-04-30T10:22:37.589Z,34.94
2018-04-30T10:25:06.410Z,32.89
2018-04-30T10:27:36.281Z,31.15
2018-04-30T10:30:07.406Z,30.31
2018-04-30T10:32:38.498Z,29.77
2018-04-30T10:35:08.944Z,30.81
2018-04-30T10:37:39.090Z,29.33
2018-04-30T10:40:10.203Z,28.19
2018-04-30T10:42:41.231Z,27.88
2018-04-30T10:45:10.850Z,28.99
2018-04-30T10:47:41.123Z,30.00
2018-04-30T10:50:12.078Z,30.42
2018-04-30T10:52:43.429Z,30.86
2018-04-30T10:55:13.354Z,30.41
2018-04-30T10:57:43.062Z,30.96
2018-04-30T11:00:12.630Z,31.38
2018-04-30T11:02:42.778Z,32.64
2018-04-30T11:05:12.489Z,32.23
2018-04-30T11:07:43.240Z,31.48
2018-04-30T11:10:12.547Z,33.16
2018-04-30T11:12:42.060Z,32.79
2018-04-30T11:15:11.538Z,32.21
2018-04-30T11:17:41.459Z,33.12
2018-04-30T11:20:10.595Z,33.11
2018-04-30T11:22:39.585Z,34.21
2018-04-30T11:25:08.429Z,33.96
2018-04-30T11:27:38.153Z,32.97
2018-04-30T11:30:07.662Z,33.23
2018-04-30T11:32:36.820Z,32.85
2018-04-30T11:35:05.636Z,33.43
2018-04-30T11:37:34.300Z,34.07
2018-04-30T11:40:04.169Z,33.76
2018-04-30T11:42:32.939Z,33.42
2018-04-30T11:45:03.133Z,30.62
2018-04-30T11:47:33.390Z,29.03
2018-04-30T11:50:02.116Z,26.52
2018-04-30T11:52:30.995Z,27.45
2018-04-30T11:54:59.682Z,27.40
2018-04-30T11:57:28.375Z,27.98
2018-04-30T11:59:57.187Z,29.84
2018-04-30T12:02:26.094Z,30.07
2018-04-30T12:04:55.139Z,30.73
2018-04-30T12:07:23.755Z,31.26
2018-04-30T12:09:52.515Z,32.01
2018-04-30T12:12:22.048Z,29.84
2018-04-30T12:14:51.622Z,27.74
2018-04-30T12:17:20.888Z,28.29
2018-04-30T12:19:51.281Z,28.25
2018-04-30T12:22:20.237Z,26.41
2018-04-30T12:24:49.183Z,26.79
2018-04-30T12:27:17.970Z,27.59
2018-04-30T12:29:47.020Z,27.61
2018-04-30T12:32:15.795Z,28.21
2018-04-30T12:34:45.742Z,28.55
2018-04-30T12:37:14.590Z,27.31
2018-04-30T12:39:43.571Z,27.09
2018-04-30T12:42:12.372Z,27.22
2018-04-30T12:44:41.372Z,28.96
2018-04-30T12:47:11.425Z,29.02
2018-04-30T12:49:40.805Z,29.87
2018-04-30T12:52:09.520Z,30.84
2018-04-30T12:54:38.288Z,31.58
2018-04-30T12:57:07.021Z,32.54
2018-04-30T12:59:36.059Z,32.77
2018-04-30T13:02:05.396Z,32.21
2018-04-30T13:04:34.437Z,32.45
2018-04-30T13:07:05.482Z,32.55
2018-04-30T13:09:35.692Z,31.76
2018-04-30T13:12:05.241Z,32.22
2018-04-30T13:14:36.354Z,31.40
2018-04-30T13:17:07.807Z,30.03
2018-04-30T13:19:36.717Z,29.24
2018-04-30T13:22:05.416Z,28.13
2018-04-30T13:24:34.818Z,27.38
2018-04-30T13:27:04.022Z,27.08
2018-04-30T13:29:32.739Z,28.11
2018-04-30T13:32:04.901Z,28.58
2018-04-30T13:34:36.802Z,29.36
2018-04-30T13:37:06.718Z,32.27
2018-04-30T13:39:37.070Z,31.81
2018-04-30T13:42:06.192Z,32.52
2018-04-30T13:44:37.951Z,32.90
2018-04-30T13:47:08.800Z,33.13
2018-04-30T13:49:37.912Z,35.75
2018-04-30T13:52:06.846Z,35.17
2018-04-30T13:54:40.392Z,34.46
2018-04-30T13:57:11.556Z,34.60
2018-04-30T13:59:44.405Z,34.69
2018-04-30T14:02:15.116Z,33.94
2018-04-30T14:04:43.947Z,32.91
2018-04-30T14:07:13.565Z,31.78
2018-04-30T14:09:43.132Z,31.82
2018-04-30T14:12:14.052Z,32.38
2018-04-30T14:14:48.272Z,31.74
2018-04-30T14:17:17.769Z,29.34
2018-04-30T14:19:47.901Z,28.73
2018-04-30T14:22:16.974Z,28.14
2018-04-30T14:24:47.081Z,28.15
2018-04-30T14:27:16.780Z,25.81
2018-04-30T14:29:48.059Z,26.07
2018-04-30T14:32:17.002Z,26.70
2018-04-30T14:34:45.760Z,26.80
2018-04-30T14:37:15.300Z,26.87
2018-04-30T14:39:44.363Z,27.12
2018-04-30T14:42:13.477Z,25.91
2018-04-30T14:44:43.620Z,26.86
2018-04-30T14:47:14.507Z,27.16
2018-04-30T14:49:43.607Z,28.43
2018-04-30T14:52:12.928Z,28.53
2018-04-30T14:54:41.687Z,27.96
2018-04-30T14:57:10.391Z,28.19
2018-04-30T14:59:38.974Z,27.97
2018-04-30T15:02:07.969Z,28.48
2018-04-30T15:04:37.130Z,29.18
2018-04-30T15:07:07.133Z,29.73
2018-04-30T15:09:36.065Z,30.43
2018-04-30T15:12:06.517Z,30.81
2018-04-30T15:14:37.332Z,31.69
2018-04-30T15:17:07.764Z,29.83
2018-04-30T15:19:37.535Z,29.76
2018-04-30T15:22:07.234Z,29.87
2018-04-30T15:24:36.818Z,29.58
2018-04-30T15:27:07.778Z,28.21
2018-04-30T15:29:36.818Z,29.28
2018-04-30T15:32:06.202Z,30.62
2018-04-30T15:34:36.295Z,31.27
2018-04-30T15:37:06.340Z,33.95
2018-04-30T15:39:36.569Z,34.60
2018-04-30T15:42:05.478Z,33.87
2018-04-30T15:44:35.015Z,34.58
2018-04-30T15:47:04.814Z,35.87
2018-04-30T15:49:33.544Z,34.40
2018-04-30T15:52:02.709Z,35.15
2018-04-30T15:54:33.440Z,35.21
2018-04-30T15:57:02.955Z,34.18
2018-04-30T15:59:33.104Z,35.82
2018-04-30T16:02:02.365Z,34.79
2018-04-30T16:04:32.215Z,35.45
2018-04-30T16:07:01.826Z,38.31
2018-04-30T16:09:31.569Z,42.32
2018-04-30T16:12:00.652Z,43.79
2018-04-30T16:14:29.451Z,44.47
2018-04-30T16:16:58.540Z,45.26
2018-04-30T16:19:28.509Z,44.67
2018-04-30T16:21:57.492Z,45.09
2018-04-30T16:24:26.985Z,46.26
2018-04-30T16:26:56.171Z,46.42
2018-04-30T16:29:25.372Z,45.80
2018-04-30T16:31:54.598Z,46.86
2018-04-30T16:34:24.967Z,48.22
2018-04-30T16:36:53.923Z,48.67
2018-04-30T16:39:23.004Z,48.57
2018-04-30T16:41:51.807Z,49.84
2018-04-30T16:44:20.695Z,50.40
2018-04-30T16:46:49.491Z,50.38
2018-04-30T16:49:19.127Z,50.87
2018-04-30T16:51:47.874Z,51.37
2018-04-30T16:54:16.957Z,51.73
2018-04-30T16:56:46.869Z,51.68
2018-04-30T16:59:15.786Z,52.07
2018-04-30T17:01:46.000Z,52.49
2018-04-30T17:04:16.485Z,52.73
2018-04-30T17:06:45.531Z,52.77
2018-04-30T17:09:14.578Z,53.41
2018-04-30T17:11:46.769Z,53.10
2018-04-30T17:14:15.751Z,53.05
2018-04-30T17:16:44.539Z,52.80
2018-04-30T17:19:13.287Z,53.18
2018-04-30T17:21:42.404Z,53.48
2018-04-30T17:24:11.532Z,53.58
2018-04-30T17:26:40.438Z,53.15
2018-04-30T17:29:09.423Z,53.37
2018-04-30T17:31:39.068Z,53.54
2018-04-30T17:34:08.438Z,53.62
2018-04-30T17:36:38.209Z,54.23
2018-04-30T17:39:07.190Z,53.90
2018-04-30T17:41:37.151Z,53.60
2018-04-30T17:44:06.226Z,54.19
2018-04-30T17:46:36.539Z,54.76
2018-04-30T17:49:06.565Z,54.83
2018-04-30T17:51:35.304Z,55.12
2018-04-30T17:54:05.147Z,55.11
2018-04-30T17:56:35.887Z,55.48
2018-04-30T17:59:07.154Z,56.01
2018-04-30T18:01:36.397Z,56.18
2018-04-30T18:04:06.067Z,56.33
2018-04-30T18:06:35.757Z,56.12
2018-04-30T18:09:06.352Z,56.25
2018-04-30T18:11:35.218Z,56.35
2018-04-30T18:14:04.870Z,56.44
2018-04-30T18:16:33.560Z,56.51
2018-04-30T18:19:03.590Z,56.80
2018-04-30T18:21:33.263Z,57.44
2018-04-30T18:24:04.048Z,57.60
2018-04-30T18:26:33.611Z,57.62
2018-04-30T18:29:03.285Z,57.43
2018-04-30T18:31:32.208Z,57.67
2018-04-30T18:34:00.948Z,58.20
2018-04-30T18:36:30.591Z,58.43
2018-04-30T18:39:00.091Z,58.46
2018-04-30T18:41:31.204Z,58.77
2018-04-30T18:43:59.879Z,58.89
2018-04-30T18:46:29.527Z,59.27
2018-04-30T18:48:59.007Z,59.59
2018-04-30T18:51:28.169Z,59.58
2018-04-30T18:53:57.365Z,59.90
2018-04-30T18:56:27.225Z,60.04
2018-04-30T18:58:56.457Z,60.35
2018-04-30T19:01:25.420Z,60.56
2018-04-30T19:03:55.047Z,60.46
2018-04-30T19:06:24.134Z,60.65
2018-04-30T19:08:53.991Z,60.66
2018-04-30T19:11:24.262Z,60.60
2018-04-30T19:13:53.621Z,61.58
2018-04-30T19:16:23.625Z,61.78
2018-04-30T19:18:54.130Z,60.98
2018-04-30T19:21:23.532Z,60.73
2018-04-30T19:23:52.641Z,61.08
2018-04-30T19:26:23.374Z,61.48
2018-04-30T19:28:53.653Z,61.13
2018-04-30T19:31:23.677Z,61.23
2018-04-30T19:33:53.036Z,60.64
2018-04-30T19:36:22.981Z,61.28
2018-04-30T19:38:52.797Z,60.83
2018-04-30T19:41:26.363Z,60.49
2018-04-30T19:43:59.607Z,60.64
2018-04-30T19:46:30.499Z,61.23
2018-04-30T19:49:01.641Z,61.97
2018-04-30T19:51:32.745Z,62.19
2018-04-30T19:54:03.932Z,62.97
2018-04-30T19:56:34.152Z,61.86
2018-04-30T19:59:04.935Z,62.09
2018-04-30T20:01:35.313Z,61.90
2018-04-30T20:04:04.675Z,61.84
2018-04-30T20:06:34.885Z,61.61
2018-04-30T20:09:05.992Z,62.38
2018-04-30T20:11:35.211Z,62.56
2018-04-30T20:14:09.656Z,62.58
2018-04-30T20:16:40.063Z,62.67
2018-04-30T20:19:10.177Z,63.20
2018-04-30T20:21:40.285Z,63.71
2018-04-30T20:24:09.672Z,64.10
2018-04-30T20:26:39.553Z,64.71
2018-04-30T20:29:10.137Z,64.91
2018-04-30T20:31:39.725Z,65.02
2018-04-30T20:34:09.082Z,65.08
2018-04-30T20:36:37.722Z,65.42
2018-04-30T20:39:07.375Z,64.78
2018-04-30T20:41:40.100Z,64.80
2018-04-30T20:44:10.209Z,65.21
2018-04-30T20:46:39.252Z,65.11
2018-04-30T20:49:08.254Z,64.73
2018-04-30T20:51:37.667Z,64.70
2018-04-30T20:54:06.950Z,64.96
2018-04-30T20:56:36.705Z,65.16
2018-04-30T20:59:05.602Z,65.39
2018-04-30T21:01:35.992Z,65.43
2018-04-30T21:04:05.535Z,66.00
2018-04-30T21:06:34.487Z,66.83
2018-04-30T21:09:14.977Z,67.21
2018-04-30T21:11:43.758Z,67.52
2018-04-30T21:14:13.198Z,67.66
2018-04-30T21:16:42.111Z,68.07
2018-04-30T21:19:12.452Z,68.12
2018-04-30T21:21:42.017Z,67.87
2018-04-30T21:24:10.928Z,68.13
2018-04-30T21:26:41.114Z,68.40
2018-04-30T21:29:10.776Z,68.38
2018-04-30T21:31:40.417Z,68.33
2018-04-30T21:34:09.460Z,68.45
2018-04-30T21:36:38.294Z,68.29
2018-04-30T21:39:07.006Z,68.58
2018-04-30T21:41:35.662Z,68.97
2018-04-30T21:44:04.433Z,70.00
2018-04-30T21:46:33.212Z,71.26
2018-04-30T21:49:01.925Z,71.20
2018-04-30T21:51:30.743Z,71.19
2018-04-30T21:53:59.442Z,71.54
2018-04-30T21:56:28.511Z,72.20
2018-04-30T21:58:57.406Z,71.94
2018-04-30T22:01:26.350Z,71.79
2018-04-30T22:03:56.378Z,71.92
2018-04-30T22:06:25.585Z,71.92
2018-04-30T22:08:54.355Z,71.99
2018-04-30T22:11:23.975Z,72.10
2018-04-30T22:13:53.723Z,72.50
2018-04-30T22:16:22.578Z,72.29
2018-04-30T22:18:51.974Z,72.63
2018-04-30T22:21:21.449Z,72.93
2018-04-30T22:23:50.857Z,72.92
2018-04-30T22:26:19.691Z,73.10
2018-04-30T22:28:48.360Z,73.47
2018-04-30T22:31:17.355Z,74.00
2018-04-30T22:33:47.413Z,75.03
2018-04-30T22:36:16.381Z,75.33
2018-04-30T22:38:45.116Z,75.45
2018-04-30T22:41:14.020Z,75.46
2018-04-30T22:43:43.746Z,75.43
2018-04-30T22:46:12.477Z,74.87
2018-04-30T22:48:41.344Z,74.65
2018-04-30T22:51:10.162Z,75.23
2018-04-30T22:53:39.256Z,75.08
2018-04-30T22:56:08.071Z,76.14
2018-04-30T22:58:36.817Z,75.84
2018-04-30T23:01:06.794Z,75.86
2018-04-30T23:03:36.142Z,76.36
2018-04-30T23:06:05.204Z,77.37
2018-04-30T23:08:34.303Z,76.92
2018-04-30T23:11:03.691Z,76.78
2018-04-30T23:13:32.421Z,76.54
2018-04-30T23:16:01.180Z,76.39
2018-04-30T23:18:29.796Z,76.03
2018-04-30T23:20:58.446Z,74.59
2018-04-30T23:23:27.313Z,75.32
2018-04-30T23:25:56.111Z,76.30
2018-04-30T23:28:24.716Z,76.90
2018-04-30T23:30:53.481Z,76.75
2018-04-30T23:33:22.165Z,76.68
2018-04-30T23:35:51.425Z,76.75
2018-04-30T23:38:21.623Z,76.81
2018-04-30T23:40:50.934Z,77.04
2018-04-30T23:43:19.798Z,77.19
2018-04-30T23:45:49.358Z,77.17
2018-04-30T23:48:17.996Z,77.33
2018-04-30T23:50:46.759Z,77.03
2018-04-30T23:53:15.556Z,77.37
2018-04-30T23:55:45.045Z,77.60
2018-04-30T23:58:13.732Z,78.06
